sensor_id;sensor_type;location;lat;lon;timestamp;pressure;altitude;pressure_sealevel;temperature;humidity
38612;BME280;24368;52.156;20.788;2023-01-26T00:04:10;101358.17;;;-0.44;100.00
38612;BME280;24368;52.156;20.788;2023-01-26T00:09:13;101357.27;;;-0.53;100.00
38612;BME280;24368;52.156;20.788;2023-01-26T00:14:15;101354.35;;;-0.58;100.00
38612;BME280;24368;52.156;20.788;2023-01-26T00:19:17;101347.05;;;-0.61;100.00
38612;BME280;24368;52.156;20.788;2023-01-26T00:24:19;101346.71;;;-0.61;100.00
38612;BME280;24368;52.156;20.788;2023-01-26T00:29:20;101348.43;;;-0.61;100.00
38612;BME280;24368;52.156;20.788;2023-01-26T00:34:22;101344.14;;;-0.49;100.00
38612;BME280;24368;52.156;20.788;2023-01-26T00:39:24;101347.34;;;-0.33;100.00
38612;BME280;24368;52.156;20.788;2023-01-26T00:44:25;101341.89;;;-0.31;100.00
38612;BME280;24368;52.156;20.788;2023-01-26T00:49:27;101334.30;;;-0.41;100.00
38612;BME280;24368;52.156;20.788;2023-01-26T00:54:29;101333.38;;;-0.39;100.00
38612;BME280;24368;52.156;20.788;2023-01-26T00:59:31;101329.48;;;-0.46;100.00
38612;BME280;24368;52.156;20.788;2023-01-26T01:04:32;101331.67;;;-0.57;100.00
38612;BME280;24368;52.156;20.788;2023-01-26T01:09:34;101326.98;;;-0.57;100.00
38612;BME280;24368;52.156;20.788;2023-01-26T01:14:36;101330.18;;;-0.50;100.00
38612;BME280;24368;52.156;20.788;2023-01-26T01:19:38;101325.08;;;-0.48;100.00
38612;BME280;24368;52.156;20.788;2023-01-26T01:24:39;101322.27;;;-0.47;100.00
38612;BME280;24368;52.156;20.788;2023-01-26T01:29:41;101317.16;;;-0.49;100.00
38612;BME280;24368;52.156;20.788;2023-01-26T01:34:46;101307.58;;;-0.52;100.00
38612;BME280;24368;52.156;20.788;2023-01-26T01:39:48;101296.02;;;-0.58;100.00
38612;BME280;24368;52.156;20.788;2023-01-26T01:50:33;101268.27;;;-0.60;100.00
38612;BME280;24368;52.156;20.788;2023-01-26T01:55:37;101269.39;;;-0.54;100.00
38612;BME280;24368;52.156;20.788;2023-01-26T02:00:39;101261.66;;;-0.46;100.00
38612;BME280;24368;52.156;20.788;2023-01-26T02:05:59;101253.92;;;-0.44;100.00
38612;BME280;24368;52.156;20.788;2023-01-26T02:11:06;101250.88;;;-0.49;100.00
38612;BME280;24368;52.156;20.788;2023-01-26T02:16:10;101241.68;;;-0.58;100.00
38612;BME280;24368;52.156;20.788;2023-01-26T02:21:17;101247.19;;;-0.57;100.00
38612;BME280;24368;52.156;20.788;2023-01-26T02:26:22;101247.56;;;-0.57;100.00
38612;BME280;24368;52.156;20.788;2023-01-26T02:31:24;101236.04;;;-0.55;100.00
38612;BME280;24368;52.156;20.788;2023-01-26T02:36:29;101233.05;;;-0.50;100.00
38612;BME280;24368;52.156;20.788;2023-01-26T02:41:31;101224.54;;;-0.40;100.00
38612;BME280;24368;52.156;20.788;2023-01-26T02:46:52;101223.41;;;-0.34;100.00
38612;BME280;24368;52.156;20.788;2023-01-26T02:51:54;101217.57;;;-0.36;100.00
38612;BME280;24368;52.156;20.788;2023-01-26T02:56:56;101212.77;;;-0.41;100.00
38612;BME280;24368;52.156;20.788;2023-01-26T03:01:58;101212.27;;;-0.41;100.00
38612;BME280;24368;52.156;20.788;2023-01-26T03:07:00;101201.34;;;-0.45;100.00
38612;BME280;24368;52.156;20.788;2023-01-26T03:12:02;101189.52;;;-0.48;100.00
38612;BME280;24368;52.156;20.788;2023-01-26T03:17:03;101187.09;;;-0.47;100.00
38612;BME280;24368;52.156;20.788;2023-01-26T03:22:08;101183.23;;;-0.42;100.00
38612;BME280;24368;52.156;20.788;2023-01-26T03:27:39;101181.86;;;-0.35;100.00
38612;BME280;24368;52.156;20.788;2023-01-26T03:32:42;101170.67;;;-0.32;100.00
38612;BME280;24368;52.156;20.788;2023-01-26T03:37:44;101169.59;;;-0.35;100.00
38612;BME280;24368;52.156;20.788;2023-01-26T03:42:46;101166.68;;;-0.36;100.00
38612;BME280;24368;52.156;20.788;2023-01-26T03:48:08;101154.59;;;-0.41;100.00
38612;BME280;24368;52.156;20.788;2023-01-26T03:53:28;101158.16;;;-0.43;100.00
38612;BME280;24368;52.156;20.788;2023-01-26T03:59:01;101147.64;;;-0.44;100.00
38612;BME280;24368;52.156;20.788;2023-01-26T04:04:09;101138.59;;;-0.43;100.00
38612;BME280;24368;52.156;20.788;2023-01-26T04:09:31;101135.45;;;-0.38;100.00
38612;BME280;24368;52.156;20.788;2023-01-26T04:14:33;101129.86;;;-0.29;100.00
38612;BME280;24368;52.156;20.788;2023-01-26T04:19:54;101124.12;;;-0.29;100.00
38612;BME280;24368;52.156;20.788;2023-01-26T04:25:17;101133.98;;;-0.29;100.00
38612;BME280;24368;52.156;20.788;2023-01-26T04:30:19;101133.30;;;-0.24;100.00
38612;BME280;24368;52.156;20.788;2023-01-26T04:35:21;101138.70;;;-0.29;100.00
38612;BME280;24368;52.156;20.788;2023-01-26T04:40:22;101139.15;;;-0.31;100.00
38612;BME280;24368;52.156;20.788;2023-01-26T04:45:24;101139.27;;;-0.26;100.00
38612;BME280;24368;52.156;20.788;2023-01-26T04:50:26;101135.69;;;-0.24;100.00
38612;BME280;24368;52.156;20.788;2023-01-26T04:55:28;101135.79;;;-0.22;100.00
38612;BME280;24368;52.156;20.788;2023-01-26T05:00:29;101122.70;;;-0.32;100.00
38612;BME280;24368;52.156;20.788;2023-01-26T05:05:36;101121.70;;;-0.33;100.00
38612;BME280;24368;52.156;20.788;2023-01-26T05:10:38;101125.90;;;-0.34;100.00
38612;BME280;24368;52.156;20.788;2023-01-26T05:15:40;101125.27;;;-0.31;100.00
38612;BME280;24368;52.156;20.788;2023-01-26T05:20:41;101119.27;;;-0.32;100.00
38612;BME280;24368;52.156;20.788;2023-01-26T05:25:43;101116.32;;;-0.36;100.00
38612;BME280;24368;52.156;20.788;2023-01-26T05:30:46;101106.39;;;-0.35;100.00
38612;BME280;24368;52.156;20.788;2023-01-26T05:35:48;101105.31;;;-0.30;100.00
38612;BME280;24368;52.156;20.788;2023-01-26T05:40:50;101107.23;;;-0.26;100.00
38612;BME280;24368;52.156;20.788;2023-01-26T05:45:52;101106.38;;;-0.27;100.00
38612;BME280;24368;52.156;20.788;2023-01-26T05:50:55;101102.08;;;-0.27;100.00
38612;BME280;24368;52.156;20.788;2023-01-26T05:55:58;101103.73;;;-0.29;100.00
38612;BME280;24368;52.156;20.788;2023-01-26T06:01:03;101112.23;;;-0.26;100.00
38612;BME280;24368;52.156;20.788;2023-01-26T06:06:05;101116.15;;;-0.24;100.00
38612;BME280;24368;52.156;20.788;2023-01-26T06:11:07;101117.91;;;-0.17;100.00
38612;BME280;24368;52.156;20.788;2023-01-26T06:16:09;101118.85;;;-0.07;100.00
38612;BME280;24368;52.156;20.788;2023-01-26T06:21:10;101117.84;;;-0.03;100.00
38612;BME280;24368;52.156;20.788;2023-01-26T06:26:12;101112.86;;;-0.04;100.00
38612;BME280;24368;52.156;20.788;2023-01-26T06:31:15;101114.98;;;-0.09;100.00
38612;BME280;24368;52.156;20.788;2023-01-26T06:36:17;101114.96;;;-0.13;100.00
38612;BME280;24368;52.156;20.788;2023-01-26T06:41:19;101109.05;;;-0.16;100.00
38612;BME280;24368;52.156;20.788;2023-01-26T06:46:20;101106.23;;;-0.15;100.00
38612;BME280;24368;52.156;20.788;2023-01-26T06:56:45;101106.35;;;-0.02;100.00
38612;BME280;24368;52.156;20.788;2023-01-26T07:01:47;101103.61;;;-0.03;100.00
38612;BME280;24368;52.156;20.788;2023-01-26T07:06:49;101103.20;;;-0.09;100.00
38612;BME280;24368;52.156;20.788;2023-01-26T07:11:51;101100.48;;;-0.14;100.00
38612;BME280;24368;52.156;20.788;2023-01-26T07:16:52;101098.99;;;-0.16;100.00
38612;BME280;24368;52.156;20.788;2023-01-26T07:21:54;101103.23;;;-0.10;100.00
38612;BME280;24368;52.156;20.788;2023-01-26T07:26:56;101096.91;;;-0.04;100.00
38612;BME280;24368;52.156;20.788;2023-01-26T07:31:57;101090.75;;;-0.02;100.00
38612;BME280;24368;52.156;20.788;2023-01-26T07:36:59;101089.42;;;-0.11;100.00
38612;BME280;24368;52.156;20.788;2023-01-26T07:42:01;101084.63;;;-0.16;100.00
38612;BME280;24368;52.156;20.788;2023-01-26T07:47:03;101077.30;;;-0.22;100.00
38612;BME280;24368;52.156;20.788;2023-01-26T07:52:05;101075.83;;;-0.21;100.00
38612;BME280;24368;52.156;20.788;2023-01-26T07:57:06;101075.88;;;-0.14;100.00
38612;BME280;24368;52.156;20.788;2023-01-26T08:02:09;101074.14;;;-0.06;100.00
38612;BME280;24368;52.156;20.788;2023-01-26T08:07:11;101082.41;;;-0.09;100.00
38612;BME280;24368;52.156;20.788;2023-01-26T08:12:12;101077.73;;;-0.09;100.00
38612;BME280;24368;52.156;20.788;2023-01-26T08:17:14;101080.66;;;-0.13;100.00
38612;BME280;24368;52.156;20.788;2023-01-26T08:22:17;101073.89;;;-0.12;100.00
38612;BME280;24368;52.156;20.788;2023-01-26T08:27:19;101075.09;;;-0.08;100.00
38612;BME280;24368;52.156;20.788;2023-01-26T08:32:21;101076.58;;;-0.06;100.00
38612;BME280;24368;52.156;20.788;2023-01-26T08:37:22;101080.69;;;-0.02;100.00
38612;BME280;24368;52.156;20.788;2023-01-26T08:42:24;101078.09;;;-0.01;100.00
38612;BME280;24368;52.156;20.788;2023-01-26T08:47:26;101075.02;;;-0.03;100.00
38612;BME280;24368;52.156;20.788;2023-01-26T08:52:27;101073.27;;;-0.02;100.00
38612;BME280;24368;52.156;20.788;2023-01-26T08:57:29;101085.30;;;-0.04;100.00
38612;BME280;24368;52.156;20.788;2023-01-26T09:02:31;101084.34;;;-0.02;100.00
38612;BME280;24368;52.156;20.788;2023-01-26T09:07:33;101092.73;;;0.08;100.00
38612;BME280;24368;52.156;20.788;2023-01-26T09:12:34;101095.82;;;0.05;100.00
38612;BME280;24368;52.156;20.788;2023-01-26T09:17:36;101099.35;;;0.04;100.00
38612;BME280;24368;52.156;20.788;2023-01-26T09:22:38;101097.31;;;0.03;100.00
38612;BME280;24368;52.156;20.788;2023-01-26T09:27:39;101105.83;;;0.02;100.00
38612;BME280;24368;52.156;20.788;2023-01-26T09:32:41;101099.16;;;0.11;100.00
38612;BME280;24368;52.156;20.788;2023-01-26T09:37:43;101094.05;;;0.17;100.00
38612;BME280;24368;52.156;20.788;2023-01-26T09:43:03;101092.70;;;0.12;100.00
38612;BME280;24368;52.156;20.788;2023-01-26T09:53:43;101083.74;;;0.04;100.00
38612;BME280;24368;52.156;20.788;2023-01-26T09:59:02;101078.60;;;0.03;100.00
38612;BME280;24368;52.156;20.788;2023-01-26T10:04:29;101077.58;;;0.06;100.00
38612;BME280;24368;52.156;20.788;2023-01-26T10:09:36;101070.89;;;0.12;100.00
38612;BME280;24368;52.156;20.788;2023-01-26T10:15:06;101068.70;;;0.14;100.00
38612;BME280;24368;52.156;20.788;2023-01-26T10:25:29;101054.79;;;0.12;100.00
38612;BME280;24368;52.156;20.788;2023-01-26T10:30:34;101050.33;;;0.11;100.00
38612;BME280;24368;52.156;20.788;2023-01-26T10:35:35;101040.38;;;0.12;100.00
38612;BME280;24368;52.156;20.788;2023-01-26T10:40:43;101034.20;;;0.11;100.00
38612;BME280;24368;52.156;20.788;2023-01-26T10:45:46;101035.05;;;0.15;100.00
38612;BME280;24368;52.156;20.788;2023-01-26T10:50:48;101035.10;;;0.10;100.00
38612;BME280;24368;52.156;20.788;2023-01-26T10:56:03;101025.67;;;0.08;100.00
38612;BME280;24368;52.156;20.788;2023-01-26T11:01:06;101016.13;;;0.12;100.00
38612;BME280;24368;52.156;20.788;2023-01-26T11:06:16;101004.52;;;0.19;100.00
38612;BME280;24368;52.156;20.788;2023-01-26T11:11:26;100996.70;;;0.23;100.00
38612;BME280;24368;52.156;20.788;2023-01-26T11:16:30;100989.52;;;0.14;100.00
38612;BME280;24368;52.156;20.788;2023-01-26T11:21:37;100988.23;;;0.13;100.00
38612;BME280;24368;52.156;20.788;2023-01-26T11:33:12;100973.77;;;0.29;100.00
38612;BME280;24368;52.156;20.788;2023-01-26T11:37:48;100967.77;;;0.35;100.00
38612;BME280;24368;52.156;20.788;2023-01-26T11:59:26;100944.77;;;0.22;100.00
38612;BME280;24368;52.156;20.788;2023-01-26T12:04:34;100943.41;;;0.29;100.00
38612;BME280;24368;52.156;20.788;2023-01-26T12:09:42;100940.77;;;0.30;100.00
38612;BME280;24368;52.156;20.788;2023-01-26T12:14:50;100934.36;;;0.34;100.00
38612;BME280;24368;52.156;20.788;2023-01-26T12:30:42;100923.61;;;0.30;100.00
38612;BME280;24368;52.156;20.788;2023-01-26T12:41:09;100931.21;;;0.34;100.00
38612;BME280;24368;52.156;20.788;2023-01-26T12:46:12;100932.89;;;0.36;100.00
38612;BME280;24368;52.156;20.788;2023-01-26T12:51:20;100930.65;;;0.35;100.00
38612;BME280;24368;52.156;20.788;2023-01-26T12:56:34;100928.92;;;0.35;100.00
38612;BME280;24368;52.156;20.788;2023-01-26T13:01:40;100920.55;;;0.43;100.00
38612;BME280;24368;52.156;20.788;2023-01-26T13:06:43;100921.86;;;0.38;100.00
38612;BME280;24368;52.156;20.788;2023-01-26T13:11:54;100924.77;;;0.31;100.00
38612;BME280;24368;52.156;20.788;2023-01-26T13:38:03;100901.77;;;0.34;100.00
38612;BME280;24368;52.156;20.788;2023-01-26T13:43:37;100899.14;;;0.31;100.00
38612;BME280;24368;52.156;20.788;2023-01-26T13:48:51;100902.11;;;0.23;100.00
38612;BME280;24368;52.156;20.788;2023-01-26T13:54:11;100904.74;;;0.19;100.00
38612;BME280;24368;52.156;20.788;2023-01-26T13:59:16;100903.68;;;0.16;100.00
38612;BME280;24368;52.156;20.788;2023-01-26T14:04:22;100901.77;;;0.13;100.00
38612;BME280;24368;52.156;20.788;2023-01-26T14:09:27;100903.29;;;0.10;100.00
38612;BME280;24368;52.156;20.788;2023-01-26T14:14:34;100904.55;;;0.15;100.00
38612;BME280;24368;52.156;20.788;2023-01-26T14:19:40;100897.17;;;0.25;100.00
38612;BME280;24368;52.156;20.788;2023-01-26T14:24:47;100895.16;;;0.31;100.00
38612;BME280;24368;52.156;20.788;2023-01-26T14:29:49;100893.85;;;0.26;100.00
38612;BME280;24368;52.156;20.788;2023-01-26T14:34:54;100894.05;;;0.21;100.00
38612;BME280;24368;52.156;20.788;2023-01-26T14:40:22;100893.06;;;0.17;100.00
38612;BME280;24368;52.156;20.788;2023-01-26T14:45:30;100888.50;;;0.14;100.00
38612;BME280;24368;52.156;20.788;2023-01-26T14:50:33;100887.16;;;0.06;100.00
38612;BME280;24368;52.156;20.788;2023-01-26T14:55:36;100882.95;;;0.07;100.00
38612;BME280;24368;52.156;20.788;2023-01-26T15:00:38;100877.14;;;0.10;100.00
38612;BME280;24368;52.156;20.788;2023-01-26T15:05:44;100868.05;;;0.18;100.00
38612;BME280;24368;52.156;20.788;2023-01-26T15:10:53;100866.91;;;0.13;100.00
38612;BME280;24368;52.156;20.788;2023-01-26T15:16:05;100868.03;;;0.08;100.00
38612;BME280;24368;52.156;20.788;2023-01-26T15:21:19;100869.19;;;0.12;100.00
38612;BME280;24368;52.156;20.788;2023-01-26T15:26:29;100870.13;;;0.07;100.00
38612;BME280;24368;52.156;20.788;2023-01-26T15:31:34;100867.16;;;0.08;100.00
38612;BME280;24368;52.156;20.788;2023-01-26T15:36:50;100867.17;;;0.01;100.00
38612;BME280;24368;52.156;20.788;2023-01-26T15:42:13;100878.26;;;-0.07;100.00
38612;BME280;24368;52.156;20.788;2023-01-26T15:47:15;100878.94;;;-0.03;100.00
38612;BME280;24368;52.156;20.788;2023-01-26T15:52:19;100884.41;;;-0.01;100.00
38612;BME280;24368;52.156;20.788;2023-01-26T15:57:23;100890.67;;;0.05;100.00
38612;BME280;24368;52.156;20.788;2023-01-26T16:02:27;100882.23;;;0.18;100.00
38612;BME280;24368;52.156;20.788;2023-01-26T16:07:29;100888.52;;;0.21;100.00
38612;BME280;24368;52.156;20.788;2023-01-26T16:12:30;100894.77;;;0.10;100.00
38612;BME280;24368;52.156;20.788;2023-01-26T16:17:32;100895.81;;;0.10;100.00
38612;BME280;24368;52.156;20.788;2023-01-26T16:22:34;100901.22;;;0.09;100.00
38612;BME280;24368;52.156;20.788;2023-01-26T16:27:36;100902.89;;;0.07;100.00
38612;BME280;24368;52.156;20.788;2023-01-26T16:32:38;100906.52;;;0.04;100.00
38612;BME280;24368;52.156;20.788;2023-01-26T16:37:39;100905.98;;;0.01;100.00
38612;BME280;24368;52.156;20.788;2023-01-26T16:42:45;100902.00;;;0.01;100.00
38612;BME280;24368;52.156;20.788;2023-01-26T16:47:49;100901.16;;;0.07;100.00
38612;BME280;24368;52.156;20.788;2023-01-26T16:52:52;100900.11;;;0.07;100.00
38612;BME280;24368;52.156;20.788;2023-01-26T16:57:54;100900.48;;;0.03;100.00
38612;BME280;24368;52.156;20.788;2023-01-26T17:02:56;100899.46;;;-0.05;100.00
38612;BME280;24368;52.156;20.788;2023-01-26T17:07:57;100903.27;;;-0.08;100.00
38612;BME280;24368;52.156;20.788;2023-01-26T17:12:59;100905.11;;;-0.10;100.00
38612;BME280;24368;52.156;20.788;2023-01-26T17:18:01;100909.40;;;-0.10;100.00
38612;BME280;24368;52.156;20.788;2023-01-26T17:23:04;100897.33;;;-0.11;100.00
38612;BME280;24368;52.156;20.788;2023-01-26T17:28:06;100896.88;;;-0.15;100.00
38612;BME280;24368;52.156;20.788;2023-01-26T17:33:08;100895.64;;;-0.15;100.00
38612;BME280;24368;52.156;20.788;2023-01-26T17:38:10;100885.86;;;-0.10;100.00
38612;BME280;24368;52.156;20.788;2023-01-26T17:43:11;100879.58;;;-0.09;100.00
38612;BME280;24368;52.156;20.788;2023-01-26T17:48:13;100880.35;;;-0.11;100.00
38612;BME280;24368;52.156;20.788;2023-01-26T17:53:15;100875.77;;;-0.09;100.00
38612;BME280;24368;52.156;20.788;2023-01-26T17:58:17;100875.34;;;-0.14;100.00
38612;BME280;24368;52.156;20.788;2023-01-26T18:03:19;100882.23;;;-0.32;100.00
38612;BME280;24368;52.156;20.788;2023-01-26T18:08:26;100895.27;;;-0.34;100.00
38612;BME280;24368;52.156;20.788;2023-01-26T18:13:29;100898.86;;;-0.32;100.00
38612;BME280;24368;52.156;20.788;2023-01-26T18:18:32;100895.70;;;-0.31;100.00
38612;BME280;24368;52.156;20.788;2023-01-26T18:23:34;100896.48;;;-0.34;100.00
38612;BME280;24368;52.156;20.788;2023-01-26T18:28:38;100896.61;;;-0.36;100.00
38612;BME280;24368;52.156;20.788;2023-01-26T18:33:40;100890.61;;;-0.41;100.00
38612;BME280;24368;52.156;20.788;2023-01-26T18:38:50;100896.78;;;-0.51;100.00
38612;BME280;24368;52.156;20.788;2023-01-26T18:43:54;100897.49;;;-0.51;100.00
38612;BME280;24368;52.156;20.788;2023-01-26T18:48:56;100899.21;;;-0.47;100.00
38612;BME280;24368;52.156;20.788;2023-01-26T18:54:01;100901.84;;;-0.37;100.00
38612;BME280;24368;52.156;20.788;2023-01-26T18:59:05;100891.06;;;-0.32;100.00
38612;BME280;24368;52.156;20.788;2023-01-26T19:04:09;100894.05;;;-0.33;100.00
38612;BME280;24368;52.156;20.788;2023-01-26T19:09:13;100898.64;;;-0.39;100.00
38612;BME280;24368;52.156;20.788;2023-01-26T19:14:14;100895.77;;;-0.44;100.00
38612;BME280;24368;52.156;20.788;2023-01-26T19:19:16;100896.64;;;-0.48;100.00
38612;BME280;24368;52.156;20.788;2023-01-26T19:24:18;100897.96;;;-0.50;100.00
38612;BME280;24368;52.156;20.788;2023-01-26T19:29:19;100903.67;;;-0.39;100.00
38612;BME280;24368;52.156;20.788;2023-01-26T19:34:21;100904.61;;;-0.33;100.00
38612;BME280;24368;52.156;20.788;2023-01-26T19:39:23;100903.81;;;-0.31;100.00
38612;BME280;24368;52.156;20.788;2023-01-26T19:44:25;100901.10;;;-0.40;100.00
38612;BME280;24368;52.156;20.788;2023-01-26T19:49:27;100900.67;;;-0.42;100.00
38612;BME280;24368;52.156;20.788;2023-01-26T19:54:28;100904.46;;;-0.45;100.00
38612;BME280;24368;52.156;20.788;2023-01-26T19:59:30;100901.81;;;-0.48;100.00
38612;BME280;24368;52.156;20.788;2023-01-26T20:04:32;100899.06;;;-0.52;100.00
38612;BME280;24368;52.156;20.788;2023-01-26T20:09:34;100900.20;;;-0.50;100.00
38612;BME280;24368;52.156;20.788;2023-01-26T20:14:36;100896.06;;;-0.50;100.00
38612;BME280;24368;52.156;20.788;2023-01-26T20:19:38;100894.80;;;-0.42;100.00
38612;BME280;24368;52.156;20.788;2023-01-26T20:24:40;100895.30;;;-0.41;100.00
38612;BME280;24368;52.156;20.788;2023-01-26T20:29:42;100889.33;;;-0.43;100.00
38612;BME280;24368;52.156;20.788;2023-01-26T20:34:44;100887.00;;;-0.45;100.00
38612;BME280;24368;52.156;20.788;2023-01-26T20:39:46;100887.54;;;-0.46;100.00
38612;BME280;24368;52.156;20.788;2023-01-26T20:44:48;100890.73;;;-0.52;100.00
38612;BME280;24368;52.156;20.788;2023-01-26T20:49:50;100888.65;;;-0.52;100.00
38612;BME280;24368;52.156;20.788;2023-01-26T20:54:53;100886.30;;;-0.57;100.00
38612;BME280;24368;52.156;20.788;2023-01-26T20:59:55;100888.39;;;-0.57;100.00
38612;BME280;24368;52.156;20.788;2023-01-26T21:04:56;100881.16;;;-0.61;100.00
38612;BME280;24368;52.156;20.788;2023-01-26T21:09:58;100874.73;;;-0.57;100.00
38612;BME280;24368;52.156;20.788;2023-01-26T21:15:00;100881.38;;;-0.47;100.00
38612;BME280;24368;52.156;20.788;2023-01-26T21:20:02;100877.55;;;-0.39;100.00
38612;BME280;24368;52.156;20.788;2023-01-26T21:25:04;100877.03;;;-0.39;100.00
38612;BME280;24368;52.156;20.788;2023-01-26T21:30:07;100882.19;;;-0.42;100.00
38612;BME280;24368;52.156;20.788;2023-01-26T21:35:10;100882.80;;;-0.44;100.00
38612;BME280;24368;52.156;20.788;2023-01-26T21:40:14;100885.19;;;-0.47;100.00
38612;BME280;24368;52.156;20.788;2023-01-26T21:45:16;100884.67;;;-0.51;100.00
38612;BME280;24368;52.156;20.788;2023-01-26T21:50:36;100882.76;;;-0.55;100.00
38612;BME280;24368;52.156;20.788;2023-01-26T21:55:56;100885.35;;;-0.58;100.00
38612;BME280;24368;52.156;20.788;2023-01-26T22:01:08;100880.21;;;-0.60;100.00
38612;BME280;24368;52.156;20.788;2023-01-26T22:06:10;100878.06;;;-0.58;100.00
38612;BME280;24368;52.156;20.788;2023-01-26T22:11:12;100875.30;;;-0.47;100.00
38612;BME280;24368;52.156;20.788;2023-01-26T22:16:15;100872.42;;;-0.41;100.00
38612;BME280;24368;52.156;20.788;2023-01-26T22:21:17;100875.98;;;-0.39;100.00
38612;BME280;24368;52.156;20.788;2023-01-26T22:26:20;100876.88;;;-0.40;100.00
38612;BME280;24368;52.156;20.788;2023-01-26T22:31:27;100876.09;;;-0.42;100.00
38612;BME280;24368;52.156;20.788;2023-01-26T22:36:29;100866.14;;;-0.47;100.00
38612;BME280;24368;52.156;20.788;2023-01-26T22:41:31;100868.43;;;-0.52;100.00
38612;BME280;24368;52.156;20.788;2023-01-26T22:46:35;100875.02;;;-0.52;100.00
38612;BME280;24368;52.156;20.788;2023-01-26T22:51:37;100871.89;;;-0.56;100.00
38612;BME280;24368;52.156;20.788;2023-01-26T22:56:39;100869.34;;;-0.56;100.00
38612;BME280;24368;52.156;20.788;2023-01-26T23:01:40;100865.23;;;-0.50;100.00
38612;BME280;24368;52.156;20.788;2023-01-26T23:06:43;100869.66;;;-0.48;100.00
38612;BME280;24368;52.156;20.788;2023-01-26T23:11:44;100869.63;;;-0.44;100.00
38612;BME280;24368;52.156;20.788;2023-01-26T23:16:46;100869.48;;;-0.49;100.00
38612;BME280;24368;52.156;20.788;2023-01-26T23:21:48;100864.55;;;-0.54;100.00
38612;BME280;24368;52.156;20.788;2023-01-26T23:26:50;100859.33;;;-0.53;100.00
38612;BME280;24368;52.156;20.788;2023-01-26T23:31:51;100853.73;;;-0.56;100.00
38612;BME280;24368;52.156;20.788;2023-01-26T23:36:54;100848.58;;;-0.57;100.00
38612;BME280;24368;52.156;20.788;2023-01-26T23:41:55;100851.05;;;-0.58;100.00
38612;BME280;24368;52.156;20.788;2023-01-26T23:46:57;100845.98;;;-0.53;100.00
38612;BME280;24368;52.156;20.788;2023-01-26T23:51:59;100840.95;;;-0.42;100.00
38612;BME280;24368;52.156;20.788;2023-01-26T23:57:00;100840.55;;;-0.33;100.00
